Terminal Aerodrome Forecast
Issued by NWS Cleveland, OH

Home | Current Version | Previous Version | Text Only | Print | Product List | Glossary Off
Versions: 1 2 3 4 5 6 7 8 9 10 11 12 13 14 15 16 17 18

000
FTUS41 KCLE 261700 RRA
TAFYNG
TAF
KYNG 261741Z 2618/2718 35008KT 2SM -SN BR BKN012 OVC025
      TEMPO 2618/2622 3SM -SN SCT012 OVC025
     FM270000 35006KT 5SM -SN OVC012=

USA.gov is the U.S. government's official web portal to all federal, state and local government web resources and services.